<?xml version="1.0" encoding="UTF-8" standalone="no" ?>
<gpx xmlns="http://www.topografix.com/GPX/1/1" xmlns:xsi="http://www.w3.org/2001/XMLSchema-instance" xsi:schemaLocation="http://www.topografix.com/GPX/1/1 http://www.topografix.com/GPX/1/1/gpx.xsd" version="1.1" creator="VisuGPX - https://www.visugpx.com">
  <metadata>
    <name>petit trail ce matin avec les copains dans la neige </name>
    <desc><![CDATA[sympa cette sortie ce matin , dans la neige par - 4 degres]]></desc>
  </metadata>
  <trk>
    <name><![CDATA[petit trail ce matin avec les copains dans la neige _1]]></name>
    <trkseg>
      <trkpt lat="50.37445" lon="2.63874">
        <ele>266</ele>
        <time>2013-01-19T09:08:33Z</time>
      </trkpt>
      <trkpt lat="50.37453" lon="2.63884">
        <ele>267</ele>
        <time>2013-01-19T09:08:43Z</time>
      </trkpt>
      <trkpt lat="50.37469" lon="2.63898">
        <ele>267</ele>
        <time>2013-01-19T09:08:53Z</time>
      </trkpt>
      <trkpt lat="50.37488" lon="2.63918">
        <ele>267</ele>
        <time>2013-01-19T09:09:03Z</time>
      </trkpt>
      <trkpt lat="50.37506" lon="2.63944">
        <ele>268</ele>
        <time>2013-01-19T09:09:13Z</time>
      </trkpt>
      <trkpt lat="50.3752" lon="2.63973">
        <ele>269</ele>
        <time>2013-01-19T09:09:23Z</time>
      </trkpt>
      <trkpt lat="50.37531" lon="2.64001">
        <ele>269</ele>
        <time>2013-01-19T09:09:33Z</time>
      </trkpt>
      <trkpt lat="50.37545" lon="2.64029">
        <ele>270</ele>
        <time>2013-01-19T09:09:43Z</time>
      </trkpt>
      <trkpt lat="50.37556" lon="2.64059">
        <ele>271</ele>
        <time>2013-01-19T09:09:53Z</time>
      </trkpt>
      <trkpt lat="50.37569" lon="2.64089">
        <ele>272</ele>
        <time>2013-01-19T09:10:03Z</time>
      </trkpt>
      <trkpt lat="50.3758" lon="2.64117">
        <ele>273</ele>
        <time>2013-01-19T09:10:13Z</time>
      </trkpt>
      <trkpt lat="50.37592" lon="2.64146">
        <ele>274</ele>
        <time>2013-01-19T09:10:23Z</time>
      </trkpt>
      <trkpt lat="50.37602" lon="2.64179">
        <ele>274</ele>
        <time>2013-01-19T09:10:33Z</time>
      </trkpt>
      <trkpt lat="50.37613" lon="2.64208">
        <ele>275</ele>
        <time>2013-01-19T09:10:43Z</time>
      </trkpt>
      <trkpt lat="50.37626" lon="2.64236">
        <ele>277</ele>
        <time>2013-01-19T09:10:53Z</time>
      </trkpt>
      <trkpt lat="50.37637" lon="2.64266">
        <ele>278</ele>
        <time>2013-01-19T09:11:03Z</time>
      </trkpt>
      <trkpt lat="50.37649" lon="2.64293">
        <ele>279</ele>
        <time>2013-01-19T09:11:14Z</time>
      </trkpt>
      <trkpt lat="50.37668" lon="2.6429">
        <ele>280</ele>
        <time>2013-01-19T09:11:24Z</time>
      </trkpt>
      <trkpt lat="50.37686" lon="2.64267">
        <ele>282</ele>
        <time>2013-01-19T09:11:34Z</time>
      </trkpt>
      <trkpt lat="50.377" lon="2.64242">
        <ele>282</ele>
        <time>2013-01-19T09:11:44Z</time>
      </trkpt>
      <trkpt lat="50.37715" lon="2.64214">
        <ele>284</ele>
        <time>2013-01-19T09:11:54Z</time>
      </trkpt>
      <trkpt lat="50.37727" lon="2.64185">
        <ele>285</ele>
        <time>2013-01-19T09:12:04Z</time>
      </trkpt>
      <trkpt lat="50.37743" lon="2.64159">
        <ele>286</ele>
        <time>2013-01-19T09:12:14Z</time>
      </trkpt>
      <trkpt lat="50.3776" lon="2.64135">
        <ele>287</ele>
        <time>2013-01-19T09:12:24Z</time>
      </trkpt>
      <trkpt lat="50.37778" lon="2.6411">
        <ele>289</ele>
        <time>2013-01-19T09:12:34Z</time>
      </trkpt>
      <trkpt lat="50.37795" lon="2.64087">
        <ele>288</ele>
        <time>2013-01-19T09:12:44Z</time>
      </trkpt>
      <trkpt lat="50.37813" lon="2.6406">
        <ele>287</ele>
        <time>2013-01-19T09:12:54Z</time>
      </trkpt>
      <trkpt lat="50.37827" lon="2.64028">
        <ele>286</ele>
        <time>2013-01-19T09:13:04Z</time>
      </trkpt>
      <trkpt lat="50.37844" lon="2.63999">
        <ele>285</ele>
        <time>2013-01-19T09:13:14Z</time>
      </trkpt>
      <trkpt lat="50.37863" lon="2.63973">
        <ele>283</ele>
        <time>2013-01-19T09:13:24Z</time>
      </trkpt>
      <trkpt lat="50.37882" lon="2.63944">
        <ele>282</ele>
        <time>2013-01-19T09:13:35Z</time>
      </trkpt>
      <trkpt lat="50.379" lon="2.63913">
        <ele>281</ele>
        <time>2013-01-19T09:13:45Z</time>
      </trkpt>
      <trkpt lat="50.37917" lon="2.63888">
        <ele>281</ele>
        <time>2013-01-19T09:13:55Z</time>
      </trkpt>
      <trkpt lat="50.37935" lon="2.63861">
        <ele>281</ele>
        <time>2013-01-19T09:14:05Z</time>
      </trkpt>
      <trkpt lat="50.37952" lon="2.63834">
        <ele>282</ele>
        <time>2013-01-19T09:14:15Z</time>
      </trkpt>
      <trkpt lat="50.37975" lon="2.63833">
        <ele>282</ele>
        <time>2013-01-19T09:14:25Z</time>
      </trkpt>
      <trkpt lat="50.37988" lon="2.63859">
        <ele>283</ele>
        <time>2013-01-19T09:14:35Z</time>
      </trkpt>
      <trkpt lat="50.37999" lon="2.63885">
        <ele>283</ele>
        <time>2013-01-19T09:14:45Z</time>
      </trkpt>
      <trkpt lat="50.3801" lon="2.63914">
        <ele>283</ele>
        <time>2013-01-19T09:14:55Z</time>
      </trkpt>
      <trkpt lat="50.38021" lon="2.63938">
        <ele>284</ele>
        <time>2013-01-19T09:15:05Z</time>
      </trkpt>
      <trkpt lat="50.38045" lon="2.63958">
        <ele>284</ele>
        <time>2013-01-19T09:15:15Z</time>
      </trkpt>
      <trkpt lat="50.38069" lon="2.63969">
        <ele>285</ele>
        <time>2013-01-19T09:15:25Z</time>
      </trkpt>
      <trkpt lat="50.38093" lon="2.63979">
        <ele>286</ele>
        <time>2013-01-19T09:15:35Z</time>
      </trkpt>
      <trkpt lat="50.38114" lon="2.63983">
        <ele>286</ele>
        <time>2013-01-19T09:15:45Z</time>
      </trkpt>
      <trkpt lat="50.38138" lon="2.6399">
        <ele>287</ele>
        <time>2013-01-19T09:15:55Z</time>
      </trkpt>
      <trkpt lat="50.38155" lon="2.63998">
        <ele>287</ele>
        <time>2013-01-19T09:16:06Z</time>
      </trkpt>
      <trkpt lat="50.38171" lon="2.64013">
        <ele>289</ele>
        <time>2013-01-19T09:16:16Z</time>
      </trkpt>
      <trkpt lat="50.38193" lon="2.64027">
        <ele>290</ele>
        <time>2013-01-19T09:16:26Z</time>
      </trkpt>
      <trkpt lat="50.38212" lon="2.64043">
        <ele>291</ele>
        <time>2013-01-19T09:16:36Z</time>
      </trkpt>
      <trkpt lat="50.38232" lon="2.64061">
        <ele>292</ele>
        <time>2013-01-19T09:16:46Z</time>
      </trkpt>
      <trkpt lat="50.38252" lon="2.64081">
        <ele>292</ele>
        <time>2013-01-19T09:16:56Z</time>
      </trkpt>
      <trkpt lat="50.38264" lon="2.64101">
        <ele>294</ele>
        <time>2013-01-19T09:17:06Z</time>
      </trkpt>
      <trkpt lat="50.38279" lon="2.64123">
        <ele>294</ele>
        <time>2013-01-19T09:17:16Z</time>
      </trkpt>
      <trkpt lat="50.38294" lon="2.64152">
        <ele>296</ele>
        <time>2013-01-19T09:17:26Z</time>
      </trkpt>
      <trkpt lat="50.38308" lon="2.64186">
        <ele>297</ele>
        <time>2013-01-19T09:17:36Z</time>
      </trkpt>
      <trkpt lat="50.38321" lon="2.64218">
        <ele>297</ele>
        <time>2013-01-19T09:17:46Z</time>
      </trkpt>
      <trkpt lat="50.38336" lon="2.64245">
        <ele>298</ele>
        <time>2013-01-19T09:17:56Z</time>
      </trkpt>
      <trkpt lat="50.38354" lon="2.64266">
        <ele>299</ele>
        <time>2013-01-19T09:18:06Z</time>
      </trkpt>
      <trkpt lat="50.38372" lon="2.64286">
        <ele>299</ele>
        <time>2013-01-19T09:18:17Z</time>
      </trkpt>
      <trkpt lat="50.3839" lon="2.643">
        <ele>299</ele>
        <time>2013-01-19T09:18:27Z</time>
      </trkpt>
      <trkpt lat="50.38408" lon="2.64316">
        <ele>299</ele>
        <time>2013-01-19T09:18:37Z</time>
      </trkpt>
      <trkpt lat="50.38424" lon="2.6434">
        <ele>300</ele>
        <time>2013-01-19T09:18:47Z</time>
      </trkpt>
      <trkpt lat="50.38443" lon="2.64365">
        <ele>301</ele>
        <time>2013-01-19T09:18:57Z</time>
      </trkpt>
      <trkpt lat="50.38462" lon="2.64386">
        <ele>302</ele>
        <time>2013-01-19T09:19:07Z</time>
      </trkpt>
      <trkpt lat="50.38475" lon="2.64395">
        <ele>303</ele>
        <time>2013-01-19T09:19:17Z</time>
      </trkpt>
      <trkpt lat="50.38495" lon="2.64401">
        <ele>305</ele>
        <time>2013-01-19T09:19:27Z</time>
      </trkpt>
      <trkpt lat="50.38515" lon="2.64395">
        <ele>306</ele>
        <time>2013-01-19T09:19:37Z</time>
      </trkpt>
      <trkpt lat="50.38537" lon="2.64383">
        <ele>307</ele>
        <time>2013-01-19T09:19:47Z</time>
      </trkpt>
      <trkpt lat="50.38559" lon="2.64374">
        <ele>308</ele>
        <time>2013-01-19T09:19:57Z</time>
      </trkpt>
      <trkpt lat="50.38573" lon="2.64379">
        <ele>308</ele>
        <time>2013-01-19T09:20:07Z</time>
      </trkpt>
      <trkpt lat="50.38593" lon="2.6438">
        <ele>308</ele>
        <time>2013-01-19T09:20:17Z</time>
      </trkpt>
      <trkpt lat="50.3862" lon="2.6439">
        <ele>308</ele>
        <time>2013-01-19T09:20:27Z</time>
      </trkpt>
      <trkpt lat="50.38643" lon="2.64424">
        <ele>308</ele>
        <time>2013-01-19T09:20:38Z</time>
      </trkpt>
      <trkpt lat="50.38657" lon="2.6446">
        <ele>308</ele>
        <time>2013-01-19T09:20:48Z</time>
      </trkpt>
      <trkpt lat="50.38655" lon="2.64491">
        <ele>308</ele>
        <time>2013-01-19T09:20:58Z</time>
      </trkpt>
      <trkpt lat="50.38637" lon="2.6451">
        <ele>307</ele>
        <time>2013-01-19T09:21:08Z</time>
      </trkpt>
      <trkpt lat="50.38617" lon="2.64531">
        <ele>307</ele>
        <time>2013-01-19T09:21:18Z</time>
      </trkpt>
      <trkpt lat="50.386" lon="2.64551">
        <ele>306</ele>
        <time>2013-01-19T09:21:28Z</time>
      </trkpt>
      <trkpt lat="50.38582" lon="2.64573">
        <ele>305</ele>
        <time>2013-01-19T09:21:38Z</time>
      </trkpt>
      <trkpt lat="50.3856" lon="2.64592">
        <ele>304</ele>
        <time>2013-01-19T09:21:48Z</time>
      </trkpt>
      <trkpt lat="50.38542" lon="2.64614">
        <ele>301</ele>
        <time>2013-01-19T09:21:58Z</time>
      </trkpt>
      <trkpt lat="50.38522" lon="2.64635">
        <ele>300</ele>
        <time>2013-01-19T09:22:08Z</time>
      </trkpt>
      <trkpt lat="50.38502" lon="2.64659">
        <ele>298</ele>
        <time>2013-01-19T09:22:18Z</time>
      </trkpt>
      <trkpt lat="50.38485" lon="2.64679">
        <ele>296</ele>
        <time>2013-01-19T09:22:28Z</time>
      </trkpt>
      <trkpt lat="50.38464" lon="2.647">
        <ele>294</ele>
        <time>2013-01-19T09:22:38Z</time>
      </trkpt>
      <trkpt lat="50.38446" lon="2.64729">
        <ele>293</ele>
        <time>2013-01-19T09:22:49Z</time>
      </trkpt>
      <trkpt lat="50.38427" lon="2.64758">
        <ele>291</ele>
        <time>2013-01-19T09:22:59Z</time>
      </trkpt>
      <trkpt lat="50.38407" lon="2.64781">
        <ele>288</ele>
        <time>2013-01-19T09:23:09Z</time>
      </trkpt>
      <trkpt lat="50.38385" lon="2.64803">
        <ele>287</ele>
        <time>2013-01-19T09:23:19Z</time>
      </trkpt>
      <trkpt lat="50.38364" lon="2.64826">
        <ele>285</ele>
        <time>2013-01-19T09:23:29Z</time>
      </trkpt>
      <trkpt lat="50.38349" lon="2.64854">
        <ele>284</ele>
        <time>2013-01-19T09:23:39Z</time>
      </trkpt>
      <trkpt lat="50.38356" lon="2.64889">
        <ele>284</ele>
        <time>2013-01-19T09:23:49Z</time>
      </trkpt>
      <trkpt lat="50.38363" lon="2.64922">
        <ele>283</ele>
        <time>2013-01-19T09:23:59Z</time>
      </trkpt>
      <trkpt lat="50.38372" lon="2.64955">
        <ele>283</ele>
        <time>2013-01-19T09:24:09Z</time>
      </trkpt>
      <trkpt lat="50.38382" lon="2.64985">
        <ele>283</ele>
        <time>2013-01-19T09:24:19Z</time>
      </trkpt>
      <trkpt lat="50.38388" lon="2.65018">
        <ele>283</ele>
        <time>2013-01-19T09:24:29Z</time>
      </trkpt>
      <trkpt lat="50.38395" lon="2.65051">
        <ele>282</ele>
        <time>2013-01-19T09:24:39Z</time>
      </trkpt>
      <trkpt lat="50.38401" lon="2.65087">
        <ele>282</ele>
        <time>2013-01-19T09:24:49Z</time>
      </trkpt>
      <trkpt lat="50.38407" lon="2.65127">
        <ele>281</ele>
        <time>2013-01-19T09:24:59Z</time>
      </trkpt>
      <trkpt lat="50.38415" lon="2.65162">
        <ele>281</ele>
        <time>2013-01-19T09:25:09Z</time>
      </trkpt>
      <trkpt lat="50.38425" lon="2.65196">
        <ele>282</ele>
        <time>2013-01-19T09:25:19Z</time>
      </trkpt>
      <trkpt lat="50.3843" lon="2.65232">
        <ele>281</ele>
        <time>2013-01-19T09:25:29Z</time>
      </trkpt>
      <trkpt lat="50.38434" lon="2.6527">
        <ele>281</ele>
        <time>2013-01-19T09:25:39Z</time>
      </trkpt>
      <trkpt lat="50.38436" lon="2.65307">
        <ele>281</ele>
        <time>2013-01-19T09:25:50Z</time>
      </trkpt>
      <trkpt lat="50.38438" lon="2.65342">
        <ele>281</ele>
        <time>2013-01-19T09:26:00Z</time>
      </trkpt>
      <trkpt lat="50.38442" lon="2.65374">
        <ele>281</ele>
        <time>2013-01-19T09:26:10Z</time>
      </trkpt>
      <trkpt lat="50.38448" lon="2.65406">
        <ele>280</ele>
        <time>2013-01-19T09:26:20Z</time>
      </trkpt>
      <trkpt lat="50.38453" lon="2.6544">
        <ele>281</ele>
        <time>2013-01-19T09:26:30Z</time>
      </trkpt>
      <trkpt lat="50.38456" lon="2.65474">
        <ele>280</ele>
        <time>2013-01-19T09:26:40Z</time>
      </trkpt>
      <trkpt lat="50.38456" lon="2.65506">
        <ele>280</ele>
        <time>2013-01-19T09:26:50Z</time>
      </trkpt>
      <trkpt lat="50.38457" lon="2.65542">
        <ele>280</ele>
        <time>2013-01-19T09:27:00Z</time>
      </trkpt>
      <trkpt lat="50.38457" lon="2.65579">
        <ele>280</ele>
        <time>2013-01-19T09:27:10Z</time>
      </trkpt>
      <trkpt lat="50.38459" lon="2.65613">
        <ele>279</ele>
        <time>2013-01-19T09:27:20Z</time>
      </trkpt>
      <trkpt lat="50.38459" lon="2.65651">
        <ele>280</ele>
        <time>2013-01-19T09:27:30Z</time>
      </trkpt>
      <trkpt lat="50.38459" lon="2.65687">
        <ele>279</ele>
        <time>2013-01-19T09:27:40Z</time>
      </trkpt>
      <trkpt lat="50.38459" lon="2.65723">
        <ele>279</ele>
        <time>2013-01-19T09:27:50Z</time>
      </trkpt>
      <trkpt lat="50.38459" lon="2.6576">
        <ele>280</ele>
        <time>2013-01-19T09:28:00Z</time>
      </trkpt>
      <trkpt lat="50.38458" lon="2.65797">
        <ele>279</ele>
        <time>2013-01-19T09:28:11Z</time>
      </trkpt>
      <trkpt lat="50.38456" lon="2.65833">
        <ele>280</ele>
        <time>2013-01-19T09:28:21Z</time>
      </trkpt>
      <trkpt lat="50.38456" lon="2.65872">
        <ele>280</ele>
        <time>2013-01-19T09:28:31Z</time>
      </trkpt>
      <trkpt lat="50.38456" lon="2.6591">
        <ele>279</ele>
        <time>2013-01-19T09:28:41Z</time>
      </trkpt>
      <trkpt lat="50.3845" lon="2.65947">
        <ele>279</ele>
        <time>2013-01-19T09:28:51Z</time>
      </trkpt>
      <trkpt lat="50.3845" lon="2.65981">
        <ele>278</ele>
        <time>2013-01-19T09:29:01Z</time>
      </trkpt>
      <trkpt lat="50.38451" lon="2.66021">
        <ele>277</ele>
        <time>2013-01-19T09:29:11Z</time>
      </trkpt>
      <trkpt lat="50.38451" lon="2.66058">
        <ele>277</ele>
        <time>2013-01-19T09:29:21Z</time>
      </trkpt>
      <trkpt lat="50.38453" lon="2.661">
        <ele>277</ele>
        <time>2013-01-19T09:29:31Z</time>
      </trkpt>
      <trkpt lat="50.38453" lon="2.66138">
        <ele>276</ele>
        <time>2013-01-19T09:29:41Z</time>
      </trkpt>
      <trkpt lat="50.38452" lon="2.66177">
        <ele>276</ele>
        <time>2013-01-19T09:29:51Z</time>
      </trkpt>
      <trkpt lat="50.38452" lon="2.66215">
        <ele>275</ele>
        <time>2013-01-19T09:30:02Z</time>
      </trkpt>
      <trkpt lat="50.38451" lon="2.66253">
        <ele>275</ele>
        <time>2013-01-19T09:30:12Z</time>
      </trkpt>
      <trkpt lat="50.38453" lon="2.66291">
        <ele>274</ele>
        <time>2013-01-19T09:30:22Z</time>
      </trkpt>
      <trkpt lat="50.38453" lon="2.66328">
        <ele>274</ele>
        <time>2013-01-19T09:30:32Z</time>
      </trkpt>
      <trkpt lat="50.38453" lon="2.66362">
        <ele>274</ele>
        <time>2013-01-19T09:30:42Z</time>
      </trkpt>
      <trkpt lat="50.38449" lon="2.66396">
        <ele>273</ele>
        <time>2013-01-19T09:30:52Z</time>
      </trkpt>
      <trkpt lat="50.38443" lon="2.66432">
        <ele>273</ele>
        <time>2013-01-19T09:31:02Z</time>
      </trkpt>
      <trkpt lat="50.38435" lon="2.66469">
        <ele>272</ele>
        <time>2013-01-19T09:31:12Z</time>
      </trkpt>
      <trkpt lat="50.3843" lon="2.66506">
        <ele>271</ele>
        <time>2013-01-19T09:31:22Z</time>
      </trkpt>
      <trkpt lat="50.38423" lon="2.66544">
        <ele>271</ele>
        <time>2013-01-19T09:31:32Z</time>
      </trkpt>
      <trkpt lat="50.38416" lon="2.66581">
        <ele>270</ele>
        <time>2013-01-19T09:31:42Z</time>
      </trkpt>
      <trkpt lat="50.38409" lon="2.66619">
        <ele>269</ele>
        <time>2013-01-19T09:31:52Z</time>
      </trkpt>
      <trkpt lat="50.38404" lon="2.66661">
        <ele>269</ele>
        <time>2013-01-19T09:32:02Z</time>
      </trkpt>
      <trkpt lat="50.384" lon="2.66697">
        <ele>268</ele>
        <time>2013-01-19T09:32:12Z</time>
      </trkpt>
      <trkpt lat="50.384" lon="2.66736">
        <ele>268</ele>
        <time>2013-01-19T09:32:22Z</time>
      </trkpt>
      <trkpt lat="50.384" lon="2.66775">
        <ele>266</ele>
        <time>2013-01-19T09:32:32Z</time>
      </trkpt>
      <trkpt lat="50.38399" lon="2.66815">
        <ele>266</ele>
        <time>2013-01-19T09:32:42Z</time>
      </trkpt>
      <trkpt lat="50.38397" lon="2.66853">
        <ele>265</ele>
        <time>2013-01-19T09:32:53Z</time>
      </trkpt>
      <trkpt lat="50.38396" lon="2.66889">
        <ele>264</ele>
        <time>2013-01-19T09:33:03Z</time>
      </trkpt>
      <trkpt lat="50.38398" lon="2.66929">
        <ele>263</ele>
        <time>2013-01-19T09:33:13Z</time>
      </trkpt>
      <trkpt lat="50.384" lon="2.66968">
        <ele>262</ele>
        <time>2013-01-19T09:33:23Z</time>
      </trkpt>
      <trkpt lat="50.38401" lon="2.67006">
        <ele>261</ele>
        <time>2013-01-19T09:33:33Z</time>
      </trkpt>
      <trkpt lat="50.38403" lon="2.67042">
        <ele>260</ele>
        <time>2013-01-19T09:33:43Z</time>
      </trkpt>
      <trkpt lat="50.38408" lon="2.67079">
        <ele>259</ele>
        <time>2013-01-19T09:33:53Z</time>
      </trkpt>
      <trkpt lat="50.38415" lon="2.67116">
        <ele>259</ele>
        <time>2013-01-19T09:34:03Z</time>
      </trkpt>
      <trkpt lat="50.38423" lon="2.67153">
        <ele>258</ele>
        <time>2013-01-19T09:34:13Z</time>
      </trkpt>
      <trkpt lat="50.38426" lon="2.67193">
        <ele>257</ele>
        <time>2013-01-19T09:34:23Z</time>
      </trkpt>
      <trkpt lat="50.38428" lon="2.67227">
        <ele>257</ele>
        <time>2013-01-19T09:34:33Z</time>
      </trkpt>
      <trkpt lat="50.38432" lon="2.67267">
        <ele>256</ele>
        <time>2013-01-19T09:34:43Z</time>
      </trkpt>
      <trkpt lat="50.3843" lon="2.6731">
        <ele>255</ele>
        <time>2013-01-19T09:34:53Z</time>
      </trkpt>
      <trkpt lat="50.38423" lon="2.67352">
        <ele>254</ele>
        <time>2013-01-19T09:35:04Z</time>
      </trkpt>
      <trkpt lat="50.38411" lon="2.6739">
        <ele>254</ele>
        <time>2013-01-19T09:35:14Z</time>
      </trkpt>
      <trkpt lat="50.384" lon="2.67426">
        <ele>254</ele>
        <time>2013-01-19T09:35:24Z</time>
      </trkpt>
      <trkpt lat="50.38389" lon="2.67459">
        <ele>253</ele>
        <time>2013-01-19T09:35:34Z</time>
      </trkpt>
      <trkpt lat="50.3838" lon="2.67494">
        <ele>252</ele>
        <time>2013-01-19T09:35:44Z</time>
      </trkpt>
      <trkpt lat="50.38369" lon="2.67529">
        <ele>252</ele>
        <time>2013-01-19T09:35:54Z</time>
      </trkpt>
      <trkpt lat="50.38357" lon="2.67565">
        <ele>252</ele>
        <time>2013-01-19T09:36:04Z</time>
      </trkpt>
      <trkpt lat="50.38347" lon="2.676">
        <ele>252</ele>
        <time>2013-01-19T09:36:14Z</time>
      </trkpt>
      <trkpt lat="50.38335" lon="2.67633">
        <ele>251</ele>
        <time>2013-01-19T09:36:24Z</time>
      </trkpt>
      <trkpt lat="50.38324" lon="2.67664">
        <ele>251</ele>
        <time>2013-01-19T09:36:34Z</time>
      </trkpt>
      <trkpt lat="50.38306" lon="2.67693">
        <ele>250</ele>
        <time>2013-01-19T09:36:44Z</time>
      </trkpt>
      <trkpt lat="50.38299" lon="2.67729">
        <ele>250</ele>
        <time>2013-01-19T09:36:54Z</time>
      </trkpt>
      <trkpt lat="50.38296" lon="2.67763">
        <ele>250</ele>
        <time>2013-01-19T09:37:04Z</time>
      </trkpt>
      <trkpt lat="50.38292" lon="2.67799">
        <ele>250</ele>
        <time>2013-01-19T09:37:14Z</time>
      </trkpt>
      <trkpt lat="50.3829" lon="2.67837">
        <ele>250</ele>
        <time>2013-01-19T09:37:25Z</time>
      </trkpt>
      <trkpt lat="50.38281" lon="2.67875">
        <ele>250</ele>
        <time>2013-01-19T09:37:35Z</time>
      </trkpt>
      <trkpt lat="50.38275" lon="2.67909">
        <ele>249</ele>
        <time>2013-01-19T09:37:45Z</time>
      </trkpt>
      <trkpt lat="50.38269" lon="2.67944">
        <ele>249</ele>
        <time>2013-01-19T09:37:55Z</time>
      </trkpt>
      <trkpt lat="50.38262" lon="2.67975">
        <ele>248</ele>
        <time>2013-01-19T09:38:05Z</time>
      </trkpt>
      <trkpt lat="50.38256" lon="2.68008">
        <ele>248</ele>
        <time>2013-01-19T09:38:15Z</time>
      </trkpt>
      <trkpt lat="50.38251" lon="2.68039">
        <ele>247</ele>
        <time>2013-01-19T09:38:25Z</time>
      </trkpt>
      <trkpt lat="50.38247" lon="2.68072">
        <ele>248</ele>
        <time>2013-01-19T09:38:35Z</time>
      </trkpt>
      <trkpt lat="50.38238" lon="2.68107">
        <ele>247</ele>
        <time>2013-01-19T09:38:45Z</time>
      </trkpt>
      <trkpt lat="50.38227" lon="2.68144">
        <ele>247</ele>
        <time>2013-01-19T09:38:55Z</time>
      </trkpt>
      <trkpt lat="50.38219" lon="2.68182">
        <ele>245</ele>
        <time>2013-01-19T09:39:06Z</time>
      </trkpt>
      <trkpt lat="50.38208" lon="2.68221">
        <ele>245</ele>
        <time>2013-01-19T09:39:16Z</time>
      </trkpt>
      <trkpt lat="50.38197" lon="2.68259">
        <ele>244</ele>
        <time>2013-01-19T09:39:26Z</time>
      </trkpt>
      <trkpt lat="50.38185" lon="2.68296">
        <ele>245</ele>
        <time>2013-01-19T09:39:36Z</time>
      </trkpt>
      <trkpt lat="50.38173" lon="2.68332">
        <ele>244</ele>
        <time>2013-01-19T09:39:46Z</time>
      </trkpt>
      <trkpt lat="50.38159" lon="2.68367">
        <ele>244</ele>
        <time>2013-01-19T09:39:56Z</time>
      </trkpt>
      <trkpt lat="50.38147" lon="2.68404">
        <ele>243</ele>
        <time>2013-01-19T09:40:06Z</time>
      </trkpt>
      <trkpt lat="50.38134" lon="2.68439">
        <ele>243</ele>
        <time>2013-01-19T09:40:16Z</time>
      </trkpt>
      <trkpt lat="50.38122" lon="2.68474">
        <ele>243</ele>
        <time>2013-01-19T09:40:26Z</time>
      </trkpt>
      <trkpt lat="50.38111" lon="2.68506">
        <ele>243</ele>
        <time>2013-01-19T09:40:36Z</time>
      </trkpt>
      <trkpt lat="50.38102" lon="2.68539">
        <ele>242</ele>
        <time>2013-01-19T09:40:46Z</time>
      </trkpt>
      <trkpt lat="50.38092" lon="2.68577">
        <ele>243</ele>
        <time>2013-01-19T09:40:56Z</time>
      </trkpt>
      <trkpt lat="50.38087" lon="2.68613">
        <ele>243</ele>
        <time>2013-01-19T09:41:06Z</time>
      </trkpt>
      <trkpt lat="50.38084" lon="2.68652">
        <ele>242</ele>
        <time>2013-01-19T09:41:17Z</time>
      </trkpt>
      <trkpt lat="50.38084" lon="2.6869">
        <ele>241</ele>
        <time>2013-01-19T09:41:27Z</time>
      </trkpt>
      <trkpt lat="50.38083" lon="2.68728">
        <ele>241</ele>
        <time>2013-01-19T09:41:37Z</time>
      </trkpt>
      <trkpt lat="50.38084" lon="2.68745">
        <ele>241</ele>
        <time>2013-01-19T09:41:47Z</time>
      </trkpt>
      <trkpt lat="50.38084" lon="2.68771">
        <ele>241</ele>
        <time>2013-01-19T09:41:57Z</time>
      </trkpt>
      <trkpt lat="50.38083" lon="2.68805">
        <ele>241</ele>
        <time>2013-01-19T09:42:07Z</time>
      </trkpt>
      <trkpt lat="50.38084" lon="2.6884">
        <ele>241</ele>
        <time>2013-01-19T09:42:17Z</time>
      </trkpt>
      <trkpt lat="50.38083" lon="2.68876">
        <ele>241</ele>
        <time>2013-01-19T09:42:27Z</time>
      </trkpt>
      <trkpt lat="50.38084" lon="2.68907">
        <ele>241</ele>
        <time>2013-01-19T09:42:37Z</time>
      </trkpt>
      <trkpt lat="50.38081" lon="2.6894">
        <ele>239</ele>
        <time>2013-01-19T09:42:47Z</time>
      </trkpt>
      <trkpt lat="50.38078" lon="2.68973">
        <ele>240</ele>
        <time>2013-01-19T09:42:57Z</time>
      </trkpt>
      <trkpt lat="50.38074" lon="2.69011">
        <ele>240</ele>
        <time>2013-01-19T09:43:07Z</time>
      </trkpt>
      <trkpt lat="50.38072" lon="2.69046">
        <ele>239</ele>
        <time>2013-01-19T09:43:17Z</time>
      </trkpt>
      <trkpt lat="50.38068" lon="2.69079">
        <ele>239</ele>
        <time>2013-01-19T09:43:27Z</time>
      </trkpt>
      <trkpt lat="50.38064" lon="2.69117">
        <ele>239</ele>
        <time>2013-01-19T09:43:37Z</time>
      </trkpt>
      <trkpt lat="50.38064" lon="2.69153">
        <ele>239</ele>
        <time>2013-01-19T09:43:48Z</time>
      </trkpt>
      <trkpt lat="50.38067" lon="2.6919">
        <ele>239</ele>
        <time>2013-01-19T09:43:58Z</time>
      </trkpt>
      <trkpt lat="50.38063" lon="2.6922">
        <ele>239</ele>
        <time>2013-01-19T09:44:08Z</time>
      </trkpt>
      <trkpt lat="50.38052" lon="2.69253">
        <ele>239</ele>
        <time>2013-01-19T09:44:18Z</time>
      </trkpt>
      <trkpt lat="50.38034" lon="2.69278">
        <ele>239</ele>
        <time>2013-01-19T09:44:28Z</time>
      </trkpt>
      <trkpt lat="50.38019" lon="2.69271">
        <ele>239</ele>
        <time>2013-01-19T09:44:38Z</time>
      </trkpt>
      <trkpt lat="50.38005" lon="2.69245">
        <ele>240</ele>
        <time>2013-01-19T09:44:48Z</time>
      </trkpt>
      <trkpt lat="50.37991" lon="2.69218">
        <ele>241</ele>
        <time>2013-01-19T09:44:58Z</time>
      </trkpt>
      <trkpt lat="50.37978" lon="2.69192">
        <ele>242</ele>
        <time>2013-01-19T09:45:08Z</time>
      </trkpt>
      <trkpt lat="50.37964" lon="2.69166">
        <ele>243</ele>
        <time>2013-01-19T09:45:18Z</time>
      </trkpt>
      <trkpt lat="50.37952" lon="2.69141">
        <ele>244</ele>
        <time>2013-01-19T09:45:28Z</time>
      </trkpt>
      <trkpt lat="50.37943" lon="2.6911">
        <ele>245</ele>
        <time>2013-01-19T09:45:38Z</time>
      </trkpt>
      <trkpt lat="50.37936" lon="2.6908">
        <ele>246</ele>
        <time>2013-01-19T09:45:48Z</time>
      </trkpt>
      <trkpt lat="50.37929" lon="2.69049">
        <ele>247</ele>
        <time>2013-01-19T09:45:58Z</time>
      </trkpt>
      <trkpt lat="50.3792" lon="2.69016">
        <ele>248</ele>
        <time>2013-01-19T09:46:08Z</time>
      </trkpt>
      <trkpt lat="50.3791" lon="2.68987">
        <ele>249</ele>
        <time>2013-01-19T09:46:18Z</time>
      </trkpt>
      <trkpt lat="50.37899" lon="2.68965">
        <ele>249</ele>
        <time>2013-01-19T09:46:28Z</time>
      </trkpt>
      <trkpt lat="50.37891" lon="2.68941">
        <ele>250</ele>
        <time>2013-01-19T09:46:39Z</time>
      </trkpt>
      <trkpt lat="50.37878" lon="2.68919">
        <ele>251</ele>
        <time>2013-01-19T09:46:49Z</time>
      </trkpt>
      <trkpt lat="50.37865" lon="2.68902">
        <ele>252</ele>
        <time>2013-01-19T09:46:59Z</time>
      </trkpt>
      <trkpt lat="50.3785" lon="2.68881">
        <ele>254</ele>
        <time>2013-01-19T09:47:09Z</time>
      </trkpt>
      <trkpt lat="50.37835" lon="2.68858">
        <ele>255</ele>
        <time>2013-01-19T09:47:19Z</time>
      </trkpt>
      <trkpt lat="50.37836" lon="2.68856">
        <ele>255</ele>
        <time>2013-01-19T09:47:29Z</time>
      </trkpt>
      <trkpt lat="50.37838" lon="2.68856">
        <ele>255</ele>
        <time>2013-01-19T09:47:39Z</time>
      </trkpt>
      <trkpt lat="50.37825" lon="2.68832">
        <ele>256</ele>
        <time>2013-01-19T09:47:49Z</time>
      </trkpt>
      <trkpt lat="50.37811" lon="2.68804">
        <ele>256</ele>
        <time>2013-01-19T09:47:59Z</time>
      </trkpt>
      <trkpt lat="50.37796" lon="2.68772">
        <ele>258</ele>
        <time>2013-01-19T09:48:09Z</time>
      </trkpt>
      <trkpt lat="50.37779" lon="2.68736">
        <ele>260</ele>
        <time>2013-01-19T09:48:19Z</time>
      </trkpt>
      <trkpt lat="50.37762" lon="2.68706">
        <ele>261</ele>
        <time>2013-01-19T09:48:29Z</time>
      </trkpt>
      <trkpt lat="50.37747" lon="2.68679">
        <ele>262</ele>
        <time>2013-01-19T09:48:39Z</time>
      </trkpt>
      <trkpt lat="50.3773" lon="2.6865">
        <ele>263</ele>
        <time>2013-01-19T09:48:49Z</time>
      </trkpt>
      <trkpt lat="50.37713" lon="2.68619">
        <ele>263</ele>
        <time>2013-01-19T09:48:59Z</time>
      </trkpt>
      <trkpt lat="50.37696" lon="2.68588">
        <ele>264</ele>
        <time>2013-01-19T09:49:10Z</time>
      </trkpt>
      <trkpt lat="50.37679" lon="2.68558">
        <ele>264</ele>
        <time>2013-01-19T09:49:20Z</time>
      </trkpt>
      <trkpt lat="50.37663" lon="2.68525">
        <ele>265</ele>
        <time>2013-01-19T09:49:30Z</time>
      </trkpt>
      <trkpt lat="50.37646" lon="2.68494">
        <ele>265</ele>
        <time>2013-01-19T09:49:40Z</time>
      </trkpt>
      <trkpt lat="50.37628" lon="2.68463">
        <ele>266</ele>
        <time>2013-01-19T09:49:50Z</time>
      </trkpt>
      <trkpt lat="50.37611" lon="2.68431">
        <ele>266</ele>
        <time>2013-01-19T09:50:00Z</time>
      </trkpt>
      <trkpt lat="50.37594" lon="2.68403">
        <ele>267</ele>
        <time>2013-01-19T09:50:10Z</time>
      </trkpt>
      <trkpt lat="50.37577" lon="2.68376">
        <ele>267</ele>
        <time>2013-01-19T09:50:20Z</time>
      </trkpt>
      <trkpt lat="50.37558" lon="2.68347">
        <ele>267</ele>
        <time>2013-01-19T09:50:30Z</time>
      </trkpt>
      <trkpt lat="50.37543" lon="2.68322">
        <ele>268</ele>
        <time>2013-01-19T09:50:40Z</time>
      </trkpt>
      <trkpt lat="50.37527" lon="2.683">
        <ele>268</ele>
        <time>2013-01-19T09:50:50Z</time>
      </trkpt>
      <trkpt lat="50.37518" lon="2.68313">
        <ele>269</ele>
        <time>2013-01-19T09:51:01Z</time>
      </trkpt>
      <trkpt lat="50.37517" lon="2.68346">
        <ele>269</ele>
        <time>2013-01-19T09:51:11Z</time>
      </trkpt>
      <trkpt lat="50.37517" lon="2.68381">
        <ele>271</ele>
        <time>2013-01-19T09:51:21Z</time>
      </trkpt>
      <trkpt lat="50.37503" lon="2.68395">
        <ele>270</ele>
        <time>2013-01-19T09:51:31Z</time>
      </trkpt>
      <trkpt lat="50.37484" lon="2.68382">
        <ele>271</ele>
        <time>2013-01-19T09:51:41Z</time>
      </trkpt>
      <trkpt lat="50.37471" lon="2.68355">
        <ele>271</ele>
        <time>2013-01-19T09:51:51Z</time>
      </trkpt>
      <trkpt lat="50.37454" lon="2.68333">
        <ele>272</ele>
        <time>2013-01-19T09:52:01Z</time>
      </trkpt>
      <trkpt lat="50.37436" lon="2.68311">
        <ele>272</ele>
        <time>2013-01-19T09:52:11Z</time>
      </trkpt>
      <trkpt lat="50.37415" lon="2.68288">
        <ele>272</ele>
        <time>2013-01-19T09:52:21Z</time>
      </trkpt>
      <trkpt lat="50.37397" lon="2.68268">
        <ele>273</ele>
        <time>2013-01-19T09:52:31Z</time>
      </trkpt>
      <trkpt lat="50.3738" lon="2.68245">
        <ele>274</ele>
        <time>2013-01-19T09:52:42Z</time>
      </trkpt>
      <trkpt lat="50.37363" lon="2.68221">
        <ele>274</ele>
        <time>2013-01-19T09:52:52Z</time>
      </trkpt>
      <trkpt lat="50.37344" lon="2.68201">
        <ele>274</ele>
        <time>2013-01-19T09:53:02Z</time>
      </trkpt>
      <trkpt lat="50.37323" lon="2.6818">
        <ele>274</ele>
        <time>2013-01-19T09:53:12Z</time>
      </trkpt>
      <trkpt lat="50.37304" lon="2.68157">
        <ele>274</ele>
        <time>2013-01-19T09:53:22Z</time>
      </trkpt>
      <trkpt lat="50.37285" lon="2.68132">
        <ele>275</ele>
        <time>2013-01-19T09:53:32Z</time>
      </trkpt>
      <trkpt lat="50.37267" lon="2.68108">
        <ele>274</ele>
        <time>2013-01-19T09:53:42Z</time>
      </trkpt>
      <trkpt lat="50.37249" lon="2.68085">
        <ele>274</ele>
        <time>2013-01-19T09:53:52Z</time>
      </trkpt>
      <trkpt lat="50.37233" lon="2.68061">
        <ele>275</ele>
        <time>2013-01-19T09:54:02Z</time>
      </trkpt>
      <trkpt lat="50.37213" lon="2.68039">
        <ele>275</ele>
        <time>2013-01-19T09:54:12Z</time>
      </trkpt>
      <trkpt lat="50.37196" lon="2.68015">
        <ele>275</ele>
        <time>2013-01-19T09:54:22Z</time>
      </trkpt>
      <trkpt lat="50.37181" lon="2.67993">
        <ele>276</ele>
        <time>2013-01-19T09:54:33Z</time>
      </trkpt>
      <trkpt lat="50.37165" lon="2.67971">
        <ele>276</ele>
        <time>2013-01-19T09:54:43Z</time>
      </trkpt>
      <trkpt lat="50.37149" lon="2.67948">
        <ele>276</ele>
        <time>2013-01-19T09:54:53Z</time>
      </trkpt>
      <trkpt lat="50.3713" lon="2.67924">
        <ele>277</ele>
        <time>2013-01-19T09:55:03Z</time>
      </trkpt>
      <trkpt lat="50.37111" lon="2.679">
        <ele>277</ele>
        <time>2013-01-19T09:55:13Z</time>
      </trkpt>
      <trkpt lat="50.37103" lon="2.67866">
        <ele>276</ele>
        <time>2013-01-19T09:55:23Z</time>
      </trkpt>
      <trkpt lat="50.37112" lon="2.67833">
        <ele>277</ele>
        <time>2013-01-19T09:55:33Z</time>
      </trkpt>
      <trkpt lat="50.37123" lon="2.67799">
        <ele>278</ele>
        <time>2013-01-19T09:55:43Z</time>
      </trkpt>
      <trkpt lat="50.3713" lon="2.67758">
        <ele>279</ele>
        <time>2013-01-19T09:55:53Z</time>
      </trkpt>
      <trkpt lat="50.37141" lon="2.67722">
        <ele>280</ele>
        <time>2013-01-19T09:56:03Z</time>
      </trkpt>
      <trkpt lat="50.37154" lon="2.6769">
        <ele>281</ele>
        <time>2013-01-19T09:56:13Z</time>
      </trkpt>
      <trkpt lat="50.37169" lon="2.67659">
        <ele>281</ele>
        <time>2013-01-19T09:56:23Z</time>
      </trkpt>
      <trkpt lat="50.37187" lon="2.67631">
        <ele>281</ele>
        <time>2013-01-19T09:56:34Z</time>
      </trkpt>
      <trkpt lat="50.37203" lon="2.67608">
        <ele>281</ele>
        <time>2013-01-19T09:56:44Z</time>
      </trkpt>
      <trkpt lat="50.37219" lon="2.67582">
        <ele>281</ele>
        <time>2013-01-19T09:56:54Z</time>
      </trkpt>
      <trkpt lat="50.37236" lon="2.67557">
        <ele>281</ele>
        <time>2013-01-19T09:57:04Z</time>
      </trkpt>
      <trkpt lat="50.37252" lon="2.67532">
        <ele>281</ele>
        <time>2013-01-19T09:57:14Z</time>
      </trkpt>
      <trkpt lat="50.3727" lon="2.6751">
        <ele>281</ele>
        <time>2013-01-19T09:57:24Z</time>
      </trkpt>
      <trkpt lat="50.37282" lon="2.67487">
        <ele>281</ele>
        <time>2013-01-19T09:57:34Z</time>
      </trkpt>
      <trkpt lat="50.37269" lon="2.67466">
        <ele>282</ele>
        <time>2013-01-19T09:57:44Z</time>
      </trkpt>
      <trkpt lat="50.37253" lon="2.67444">
        <ele>283</ele>
        <time>2013-01-19T09:57:54Z</time>
      </trkpt>
      <trkpt lat="50.37233" lon="2.67419">
        <ele>283</ele>
        <time>2013-01-19T09:58:04Z</time>
      </trkpt>
      <trkpt lat="50.37211" lon="2.67393">
        <ele>284</ele>
        <time>2013-01-19T09:58:14Z</time>
      </trkpt>
      <trkpt lat="50.3719" lon="2.6737">
        <ele>283</ele>
        <time>2013-01-19T09:58:24Z</time>
      </trkpt>
      <trkpt lat="50.3717" lon="2.67346">
        <ele>283</ele>
        <time>2013-01-19T09:58:34Z</time>
      </trkpt>
      <trkpt lat="50.37149" lon="2.67326">
        <ele>283</ele>
        <time>2013-01-19T09:58:45Z</time>
      </trkpt>
      <trkpt lat="50.37128" lon="2.67306">
        <ele>283</ele>
        <time>2013-01-19T09:58:55Z</time>
      </trkpt>
      <trkpt lat="50.37108" lon="2.67289">
        <ele>283</ele>
        <time>2013-01-19T09:59:05Z</time>
      </trkpt>
      <trkpt lat="50.37088" lon="2.67273">
        <ele>282</ele>
        <time>2013-01-19T09:59:15Z</time>
      </trkpt>
      <trkpt lat="50.37068" lon="2.67258">
        <ele>283</ele>
        <time>2013-01-19T09:59:25Z</time>
      </trkpt>
      <trkpt lat="50.37049" lon="2.6724">
        <ele>283</ele>
        <time>2013-01-19T09:59:35Z</time>
      </trkpt>
      <trkpt lat="50.37029" lon="2.67224">
        <ele>283</ele>
        <time>2013-01-19T09:59:45Z</time>
      </trkpt>
      <trkpt lat="50.37037" lon="2.67206">
        <ele>283</ele>
        <time>2013-01-19T09:59:55Z</time>
      </trkpt>
      <trkpt lat="50.37052" lon="2.67186">
        <ele>284</ele>
        <time>2013-01-19T10:00:05Z</time>
      </trkpt>
      <trkpt lat="50.37067" lon="2.67164">
        <ele>285</ele>
        <time>2013-01-19T10:00:15Z</time>
      </trkpt>
      <trkpt lat="50.37083" lon="2.67139">
        <ele>285</ele>
        <time>2013-01-19T10:00:25Z</time>
      </trkpt>
      <trkpt lat="50.37094" lon="2.67117">
        <ele>285</ele>
        <time>2013-01-19T10:00:35Z</time>
      </trkpt>
      <trkpt lat="50.37111" lon="2.67088">
        <ele>286</ele>
        <time>2013-01-19T10:00:45Z</time>
      </trkpt>
      <trkpt lat="50.37125" lon="2.67052">
        <ele>285</ele>
        <time>2013-01-19T10:00:55Z</time>
      </trkpt>
      <trkpt lat="50.37131" lon="2.6701">
        <ele>285</ele>
        <time>2013-01-19T10:01:05Z</time>
      </trkpt>
      <trkpt lat="50.37144" lon="2.66968">
        <ele>283</ele>
        <time>2013-01-19T10:01:15Z</time>
      </trkpt>
      <trkpt lat="50.3716" lon="2.66939">
        <ele>281</ele>
        <time>2013-01-19T10:01:25Z</time>
      </trkpt>
      <trkpt lat="50.37182" lon="2.66931">
        <ele>282</ele>
        <time>2013-01-19T10:01:35Z</time>
      </trkpt>
      <trkpt lat="50.372" lon="2.66899">
        <ele>283</ele>
        <time>2013-01-19T10:01:45Z</time>
      </trkpt>
      <trkpt lat="50.37219" lon="2.66869">
        <ele>284</ele>
        <time>2013-01-19T10:01:56Z</time>
      </trkpt>
      <trkpt lat="50.37237" lon="2.66842">
        <ele>285</ele>
        <time>2013-01-19T10:02:06Z</time>
      </trkpt>
      <trkpt lat="50.37234" lon="2.66812">
        <ele>286</ele>
        <time>2013-01-19T10:02:16Z</time>
      </trkpt>
      <trkpt lat="50.37217" lon="2.66779">
        <ele>285</ele>
        <time>2013-01-19T10:02:26Z</time>
      </trkpt>
      <trkpt lat="50.37204" lon="2.6674">
        <ele>285</ele>
        <time>2013-01-19T10:02:36Z</time>
      </trkpt>
      <trkpt lat="50.37188" lon="2.66707">
        <ele>284</ele>
        <time>2013-01-19T10:02:46Z</time>
      </trkpt>
      <trkpt lat="50.37165" lon="2.66687">
        <ele>283</ele>
        <time>2013-01-19T10:02:56Z</time>
      </trkpt>
      <trkpt lat="50.37141" lon="2.6667">
        <ele>283</ele>
        <time>2013-01-19T10:03:06Z</time>
      </trkpt>
      <trkpt lat="50.37118" lon="2.66646">
        <ele>282</ele>
        <time>2013-01-19T10:03:16Z</time>
      </trkpt>
      <trkpt lat="50.37099" lon="2.66622">
        <ele>282</ele>
        <time>2013-01-19T10:03:26Z</time>
      </trkpt>
      <trkpt lat="50.37086" lon="2.66603">
        <ele>283</ele>
        <time>2013-01-19T10:03:36Z</time>
      </trkpt>
      <trkpt lat="50.37068" lon="2.66577">
        <ele>283</ele>
        <time>2013-01-19T10:03:46Z</time>
      </trkpt>
      <trkpt lat="50.37052" lon="2.66551">
        <ele>283</ele>
        <time>2013-01-19T10:03:56Z</time>
      </trkpt>
      <trkpt lat="50.37054" lon="2.66518">
        <ele>283</ele>
        <time>2013-01-19T10:04:06Z</time>
      </trkpt>
      <trkpt lat="50.37049" lon="2.66481">
        <ele>285</ele>
        <time>2013-01-19T10:04:17Z</time>
      </trkpt>
      <trkpt lat="50.37033" lon="2.66449">
        <ele>285</ele>
        <time>2013-01-19T10:04:27Z</time>
      </trkpt>
      <trkpt lat="50.37022" lon="2.66416">
        <ele>284</ele>
        <time>2013-01-19T10:04:37Z</time>
      </trkpt>
      <trkpt lat="50.37033" lon="2.66382">
        <ele>285</ele>
        <time>2013-01-19T10:04:47Z</time>
      </trkpt>
      <trkpt lat="50.37046" lon="2.66351">
        <ele>285</ele>
        <time>2013-01-19T10:04:57Z</time>
      </trkpt>
      <trkpt lat="50.3706" lon="2.66322">
        <ele>283</ele>
        <time>2013-01-19T10:05:07Z</time>
      </trkpt>
      <trkpt lat="50.37073" lon="2.66291">
        <ele>280</ele>
        <time>2013-01-19T10:05:17Z</time>
      </trkpt>
      <trkpt lat="50.37089" lon="2.66254">
        <ele>276</ele>
        <time>2013-01-19T10:05:27Z</time>
      </trkpt>
      <trkpt lat="50.37105" lon="2.66224">
        <ele>273</ele>
        <time>2013-01-19T10:05:37Z</time>
      </trkpt>
      <trkpt lat="50.37121" lon="2.66185">
        <ele>270</ele>
        <time>2013-01-19T10:05:48Z</time>
      </trkpt>
      <trkpt lat="50.3711" lon="2.66165">
        <ele>269</ele>
        <time>2013-01-19T10:05:58Z</time>
      </trkpt>
      <trkpt lat="50.3709" lon="2.66146">
        <ele>269</ele>
        <time>2013-01-19T10:06:08Z</time>
      </trkpt>
      <trkpt lat="50.37067" lon="2.66122">
        <ele>269</ele>
        <time>2013-01-19T10:06:18Z</time>
      </trkpt>
      <trkpt lat="50.37045" lon="2.66098">
        <ele>268</ele>
        <time>2013-01-19T10:06:28Z</time>
      </trkpt>
      <trkpt lat="50.37025" lon="2.66073">
        <ele>268</ele>
        <time>2013-01-19T10:06:38Z</time>
      </trkpt>
      <trkpt lat="50.37005" lon="2.66048">
        <ele>267</ele>
        <time>2013-01-19T10:06:48Z</time>
      </trkpt>
      <trkpt lat="50.36988" lon="2.66027">
        <ele>266</ele>
        <time>2013-01-19T10:06:58Z</time>
      </trkpt>
      <trkpt lat="50.36968" lon="2.66">
        <ele>266</ele>
        <time>2013-01-19T10:07:08Z</time>
      </trkpt>
      <trkpt lat="50.36944" lon="2.65963">
        <ele>264</ele>
        <time>2013-01-19T10:07:18Z</time>
      </trkpt>
      <trkpt lat="50.36924" lon="2.65929">
        <ele>263</ele>
        <time>2013-01-19T10:07:28Z</time>
      </trkpt>
      <trkpt lat="50.36909" lon="2.65898">
        <ele>262</ele>
        <time>2013-01-19T10:07:38Z</time>
      </trkpt>
      <trkpt lat="50.36891" lon="2.65866">
        <ele>260</ele>
        <time>2013-01-19T10:07:49Z</time>
      </trkpt>
      <trkpt lat="50.36871" lon="2.65839">
        <ele>259</ele>
        <time>2013-01-19T10:07:59Z</time>
      </trkpt>
      <trkpt lat="50.36855" lon="2.6581">
        <ele>258</ele>
        <time>2013-01-19T10:08:09Z</time>
      </trkpt>
      <trkpt lat="50.36837" lon="2.65784">
        <ele>258</ele>
        <time>2013-01-19T10:08:19Z</time>
      </trkpt>
      <trkpt lat="50.36821" lon="2.6575">
        <ele>257</ele>
        <time>2013-01-19T10:08:29Z</time>
      </trkpt>
      <trkpt lat="50.3682" lon="2.65722">
        <ele>255</ele>
        <time>2013-01-19T10:08:39Z</time>
      </trkpt>
      <trkpt lat="50.36832" lon="2.65689">
        <ele>257</ele>
        <time>2013-01-19T10:08:49Z</time>
      </trkpt>
      <trkpt lat="50.36843" lon="2.65657">
        <ele>257</ele>
        <time>2013-01-19T10:08:59Z</time>
      </trkpt>
      <trkpt lat="50.36854" lon="2.65621">
        <ele>257</ele>
        <time>2013-01-19T10:09:09Z</time>
      </trkpt>
      <trkpt lat="50.36867" lon="2.65594">
        <ele>259</ele>
        <time>2013-01-19T10:09:19Z</time>
      </trkpt>
      <trkpt lat="50.36883" lon="2.65564">
        <ele>260</ele>
        <time>2013-01-19T10:09:29Z</time>
      </trkpt>
      <trkpt lat="50.36898" lon="2.65539">
        <ele>262</ele>
        <time>2013-01-19T10:09:39Z</time>
      </trkpt>
      <trkpt lat="50.36908" lon="2.65515">
        <ele>264</ele>
        <time>2013-01-19T10:09:49Z</time>
      </trkpt>
      <trkpt lat="50.3692" lon="2.6549">
        <ele>266</ele>
        <time>2013-01-19T10:09:59Z</time>
      </trkpt>
      <trkpt lat="50.36934" lon="2.6547">
        <ele>268</ele>
        <time>2013-01-19T10:10:09Z</time>
      </trkpt>
      <trkpt lat="50.36946" lon="2.65446">
        <ele>270</ele>
        <time>2013-01-19T10:10:20Z</time>
      </trkpt>
      <trkpt lat="50.3696" lon="2.65427">
        <ele>272</ele>
        <time>2013-01-19T10:10:30Z</time>
      </trkpt>
      <trkpt lat="50.36974" lon="2.65405">
        <ele>274</ele>
        <time>2013-01-19T10:10:40Z</time>
      </trkpt>
      <trkpt lat="50.36987" lon="2.65383">
        <ele>276</ele>
        <time>2013-01-19T10:10:50Z</time>
      </trkpt>
      <trkpt lat="50.37001" lon="2.65366">
        <ele>278</ele>
        <time>2013-01-19T10:11:00Z</time>
      </trkpt>
      <trkpt lat="50.37016" lon="2.65348">
        <ele>280</ele>
        <time>2013-01-19T10:11:10Z</time>
      </trkpt>
      <trkpt lat="50.37029" lon="2.65326">
        <ele>282</ele>
        <time>2013-01-19T10:11:20Z</time>
      </trkpt>
      <trkpt lat="50.37041" lon="2.65301">
        <ele>283</ele>
        <time>2013-01-19T10:11:30Z</time>
      </trkpt>
      <trkpt lat="50.37056" lon="2.65276">
        <ele>285</ele>
        <time>2013-01-19T10:11:40Z</time>
      </trkpt>
      <trkpt lat="50.37074" lon="2.65252">
        <ele>286</ele>
        <time>2013-01-19T10:11:50Z</time>
      </trkpt>
      <trkpt lat="50.3709" lon="2.65221">
        <ele>287</ele>
        <time>2013-01-19T10:12:00Z</time>
      </trkpt>
      <trkpt lat="50.37108" lon="2.65195">
        <ele>288</ele>
        <time>2013-01-19T10:12:10Z</time>
      </trkpt>
      <trkpt lat="50.37128" lon="2.65164">
        <ele>288</ele>
        <time>2013-01-19T10:12:20Z</time>
      </trkpt>
      <trkpt lat="50.37145" lon="2.6513">
        <ele>289</ele>
        <time>2013-01-19T10:12:30Z</time>
      </trkpt>
      <trkpt lat="50.37161" lon="2.65102">
        <ele>288</ele>
        <time>2013-01-19T10:12:40Z</time>
      </trkpt>
      <trkpt lat="50.37178" lon="2.65079">
        <ele>287</ele>
        <time>2013-01-19T10:12:50Z</time>
      </trkpt>
      <trkpt lat="50.37195" lon="2.65054">
        <ele>287</ele>
        <time>2013-01-19T10:13:00Z</time>
      </trkpt>
      <trkpt lat="50.37212" lon="2.65026">
        <ele>287</ele>
        <time>2013-01-19T10:13:10Z</time>
      </trkpt>
      <trkpt lat="50.37228" lon="2.64998">
        <ele>288</ele>
        <time>2013-01-19T10:13:21Z</time>
      </trkpt>
      <trkpt lat="50.37243" lon="2.6497">
        <ele>288</ele>
        <time>2013-01-19T10:13:31Z</time>
      </trkpt>
      <trkpt lat="50.3726" lon="2.64944">
        <ele>289</ele>
        <time>2013-01-19T10:13:41Z</time>
      </trkpt>
      <trkpt lat="50.37276" lon="2.64916">
        <ele>289</ele>
        <time>2013-01-19T10:13:51Z</time>
      </trkpt>
      <trkpt lat="50.37294" lon="2.64887">
        <ele>290</ele>
        <time>2013-01-19T10:14:01Z</time>
      </trkpt>
      <trkpt lat="50.37311" lon="2.64859">
        <ele>290</ele>
        <time>2013-01-19T10:14:11Z</time>
      </trkpt>
      <trkpt lat="50.3733" lon="2.64831">
        <ele>291</ele>
        <time>2013-01-19T10:14:21Z</time>
      </trkpt>
      <trkpt lat="50.37348" lon="2.64804">
        <ele>292</ele>
        <time>2013-01-19T10:14:31Z</time>
      </trkpt>
      <trkpt lat="50.37363" lon="2.64778">
        <ele>292</ele>
        <time>2013-01-19T10:14:41Z</time>
      </trkpt>
      <trkpt lat="50.37378" lon="2.64751">
        <ele>293</ele>
        <time>2013-01-19T10:14:51Z</time>
      </trkpt>
      <trkpt lat="50.37395" lon="2.64721">
        <ele>293</ele>
        <time>2013-01-19T10:15:01Z</time>
      </trkpt>
      <trkpt lat="50.37412" lon="2.64693">
        <ele>293</ele>
        <time>2013-01-19T10:15:11Z</time>
      </trkpt>
      <trkpt lat="50.3743" lon="2.64664">
        <ele>294</ele>
        <time>2013-01-19T10:15:21Z</time>
      </trkpt>
      <trkpt lat="50.37449" lon="2.64635">
        <ele>294</ele>
        <time>2013-01-19T10:15:31Z</time>
      </trkpt>
      <trkpt lat="50.3747" lon="2.64604">
        <ele>295</ele>
        <time>2013-01-19T10:15:41Z</time>
      </trkpt>
      <trkpt lat="50.37488" lon="2.64576">
        <ele>294</ele>
        <time>2013-01-19T10:15:51Z</time>
      </trkpt>
      <trkpt lat="50.37511" lon="2.64547">
        <ele>293</ele>
        <time>2013-01-19T10:16:02Z</time>
      </trkpt>
      <trkpt lat="50.37533" lon="2.64521">
        <ele>292</ele>
        <time>2013-01-19T10:16:12Z</time>
      </trkpt>
      <trkpt lat="50.37551" lon="2.64492">
        <ele>289</ele>
        <time>2013-01-19T10:16:22Z</time>
      </trkpt>
      <trkpt lat="50.3757" lon="2.64463">
        <ele>287</ele>
        <time>2013-01-19T10:16:32Z</time>
      </trkpt>
      <trkpt lat="50.37589" lon="2.6443">
        <ele>284</ele>
        <time>2013-01-19T10:16:42Z</time>
      </trkpt>
      <trkpt lat="50.37608" lon="2.64393">
        <ele>283</ele>
        <time>2013-01-19T10:16:52Z</time>
      </trkpt>
      <trkpt lat="50.37632" lon="2.64354">
        <ele>282</ele>
        <time>2013-01-19T10:17:02Z</time>
      </trkpt>
      <trkpt lat="50.37651" lon="2.64321">
        <ele>280</ele>
        <time>2013-01-19T10:17:12Z</time>
      </trkpt>
      <trkpt lat="50.37641" lon="2.6428">
        <ele>277</ele>
        <time>2013-01-19T10:17:22Z</time>
      </trkpt>
      <trkpt lat="50.37626" lon="2.64236">
        <ele>275</ele>
        <time>2013-01-19T10:17:32Z</time>
      </trkpt>
      <trkpt lat="50.37608" lon="2.64197">
        <ele>273</ele>
        <time>2013-01-19T10:17:42Z</time>
      </trkpt>
      <trkpt lat="50.37592" lon="2.64158">
        <ele>272</ele>
        <time>2013-01-19T10:17:52Z</time>
      </trkpt>
      <trkpt lat="50.37574" lon="2.64116">
        <ele>271</ele>
        <time>2013-01-19T10:18:02Z</time>
      </trkpt>
      <trkpt lat="50.37556" lon="2.64075">
        <ele>269</ele>
        <time>2013-01-19T10:18:12Z</time>
      </trkpt>
      <trkpt lat="50.37539" lon="2.64035">
        <ele>268</ele>
        <time>2013-01-19T10:18:23Z</time>
      </trkpt>
      <trkpt lat="50.37523" lon="2.63997">
        <ele>267</ele>
        <time>2013-01-19T10:18:33Z</time>
      </trkpt>
      <trkpt lat="50.37506" lon="2.63953">
        <ele>265</ele>
        <time>2013-01-19T10:18:43Z</time>
      </trkpt>
      <trkpt lat="50.3749" lon="2.63925">
        <ele>264</ele>
        <time>2013-01-19T10:18:53Z</time>
      </trkpt>
      <trkpt lat="50.37472" lon="2.63903">
        <ele>263</ele>
        <time>2013-01-19T10:19:03Z</time>
      </trkpt>
      <trkpt lat="50.37455" lon="2.63882">
        <ele>262</ele>
        <time>2013-01-19T10:19:13Z</time>
      </trkpt>
      <trkpt lat="50.37449" lon="2.63873">
        <ele>262</ele>
        <time>2013-01-19T10:19:14Z</time>
      </trkpt>
    </trkseg>
  </trk>
</gpx>